Espace membre
Imprimable
Challenges > Delhalle - Chimay, 20/04/2019, BEL - Jogging de la Principauté
Liste des rapports > Delhalle - 14.3 km - Classement
Recherche: Page: [1]
163 Entrées
 
Les réclamations ne sont plus acceptées, les résultats sont considérés comme définitifs.
RangNrNomAgeIOCLigueEquipeRéelTempsTkmMoy.ScrPtsLocalité
1.1523DIAZ RODRIGUEZ ALEXANDER40BEL51:1851:183:36 16.731BRUGGE
2.403POCHET ALEXANDRE42BELJCCS55:5455:543:55 15.356GEDINNE
3.1630CRUSIAUX STEPHANE40FRACAFCA FOURMIES56:3156:313:58 15.187WIGNEHIES
4.6235BERNARD LAURENT45FRACAFCA FOURMIES58:0758:074:04 14.7610WIGNEHIES
5.6776SMET JOHN43BELVERTIGO58:1158:114:05 14.7511CARNIÈRES
6.6691BRUYÈRE PATRICK42BELBOUFFIOLS1:00:061:00:064:13 14.2815CHÂTELET
7.1617LELIÈVRE THIERRY47BELJOGGANS1:03:121:03:124:26 13.5825JETTE
8.290BALLEUX CHRISTOPHE43BELSMAC1:03:561:03:564:29 13.4234BOIS-DE-VILLERS
9.6476TOUZEAU JEAN-LUC49BELRUNNING TRAIL THIÉRA1:05:361:05:364:36 13.0843X
10.594BOSSANT JEAN-FRANÇOIS44BELFER1:05:441:05:444:36 13.0544VELLEREILLE-LE-SEC
11.641BRUNIN CHRISTOPHE45BELGAG1:06:371:06:374:40 12.8853GEMBLOUX
12.6794COLLERY BENOIT40FRA1:07:021:07:024:42 12.8060
13.988GUTIERREZ MANU44BELUAC1:07:101:07:104:42 12.7763LAMBUSART
14.6837CARION GAUTHIER41BELDS1:08:061:08:064:46 12.6067THULIN
15.6181LORIMIER HEROLD46BELTEAM VERTIGO1:08:531:08:534:49 12.4675LENS
16.6460EDWARDS JASON48AGOVERTIGO1:09:061:09:064:50 12.4276JURBISE
17.30HANNOTTE CHRISTOPHE46BELRUNNING FERNELMONT1:09:231:09:234:52 12.3782NOVILLE-LES-BOIS
18.1058DENIS OLIVIER44BEL1:09:371:09:374:53 12.3385LES COLLONS
19.253DUQUESNE EMMANUEL41BELFORESTIERE1:10:171:10:174:55 12.2192JURBISE
20.6687LOMBAERT SÉBASTIEN44BELRCB1:10:271:10:274:56 12.1893BRUXELLES
21.6766MERSCH SÉBASTIEN42BEL1:10:361:10:364:57 12.1595STREE (H 6511
22.1514MARTIN LIONNEL40FRARSNROCROY SPORTS NATURE1:10:451:10:454:57 12.1397HARCY
23.6535RATY HUGUES48BEL1:10:581:10:584:58 12.09100GILLY
24.1186URBAIN BAUDOUIN48BEL1:11:011:11:014:58 12.081016181
25.6444MARSIN GAÉTAN44BELRCBMYSTERE1:11:151:11:154:59 12.04104UCCLE
26.6767CASTIGLIA PHILIPPE45BEL1:11:231:11:235:00 12.02106JEUMONT
27.541ZICOT CHRISTOPHE45BELUAC1:11:421:11:425:01 11.97110AUVELAIS
28.5973CORNET DANIEL48BELESMESM1:12:171:12:175:04 11.87117COURCELLES
29.6489ESPOSITO VINCENZO45ITARUNNING TEAM BRACQUE1:12:171:12:175:04 11.87118BRAY
30.6244BAILLY KARL45BELJACO1:12:271:12:275:04 11.84121CHIMAY
31.6841POUCET FABRICE40BEL1:12:271:12:275:04 11.84122
32.78DUTRIEUX FERNAND48BEL1:12:351:12:355:05 11.82126BAUDOUR
33.956BARTOSZUK ROMAN45BELRCB1:12:551:12:555:06 11.77130ZAVENTEM
34.1481LEFEBVRE XAVIER42FRACAFCA FOURMIES1:13:591:13:595:11 11.60140WIGNEHIES
35.110PONCELET XAVIER44BELCABWTRAKKS1:14:181:14:185:12 11.55147VITRIVAL
36.6785BOUILLET NICOLAS40BELLA THURE1:14:261:14:265:13 11.53148GOSSELIES
37.1895MAGOTTEAUX CÉDRIC40BELKINÉ SPORT1:14:331:14:335:13 11.51152PESCHE
38.4781POUSSART MICHAEL45BEL1:14:351:14:355:13 11.51153VIRELLES
39.901VANDERHAEGEN SAMUEL41BELJTP BLANCS GILETS1:14:411:14:415:14 11.49155GENAPPE
40.6809PAULUS DAVID44BEL1:14:421:14:425:14 11.49156
41.68MASURE ALEXANDRE49BELRCNAMUR1:14:491:14:495:14 11.47158LEUZE ( EGHEZÉE )
42.6414DA SILVA TONY43BEL1:14:501:14:505:14 11.47161SPRIMONT
43.6779LELANGUE DANIEL48BELVERTIGO1:14:551:14:555:15 11.45162LENS
44.1538JOSSE JOHANN40FRACAFCA FOURMIES1:14:561:14:565:15 11.45163WIGNEHIES
45.1520WILLEM ALEXANDRE43BEL1:15:081:15:085:16 11.42166WATERLOO
46.1497GUIOT PASCAL49BELSHARKS1:15:091:15:095:16 11.42167CHIMAY
47.1135DOCK LARRY46BEL1:15:111:15:115:16 11.41168MONTBLIART
48.1611JAVAUX MAXIME42BELQ3T1:15:191:15:195:16 11.39170LIGNY
49.6435BESCHIN ORLANDO45BEL1:15:321:15:325:17 11.36174HAVRÉ
50.6778PIERRET STEPHANE49BELVERTIGO1:15:321:15:325:17 11.36175SAINT-DENIS
51.941MOREAUX OLIVIER49BELTRAVEL2RUN1:15:591:15:595:19 11.29182SOMBREFFE
52.666SEN ERCAN49BELCEPAL1:16:051:16:055:20 11.28184MOLENBEEK-SAINT-JEAN
53.70LECLERCQ CÉDRIC40BEL1:16:591:16:595:23 11.15192LIERNU
54.823DUMOULIN LAURENT49BEL1:17:421:17:425:26 11.04201MONS
55.477FIASSE FRANÇOIS42BELHUYFOULÉES DU PLAISIR1:17:511:17:515:27 11.02204OCQUIER
56.6596GUILLERM DAVID43FRARONVAU1:17:561:17:565:27 11.01208MÉLIN
57.1884HOUBAILLE PHILIPPE48FRAFFA1:17:591:17:595:28 11.00210CHARLEVILLE MEZIERES
58.6212ZIMMERMANN MAXIMILIEN42BEL1:19:141:19:145:33 10.83220IXELLES
59.388BUCHET FREDERIC47BELUSBWMYSTERE1:19:371:19:375:35 10.78226BRAINE-L'ALLEUD
60.6692PITOT RENE48BEL1:19:491:19:495:35 10.75228
61.6676DUMONT CARYL44BELRCABWRCABW1:19:581:19:585:36 10.73232BINCHE
62.1048CORDEWENER JOËL44BELAC FRONTIÈRES1:19:581:19:585:36 10.73233X
63.1350KAMP OLIVIER45BEL1:20:081:20:085:37 10.71235WAVRE
64.1539BOMBLED CHRISTOPHE46BEL1:20:101:20:105:37 10.70236CERFONTAINE
65.6401THIRY CONRAD45BELOM1:20:181:20:185:37 10.69237ONNEZIES
66.6680LOTERMAN STEPHANE45BELESM1:20:481:20:485:40 10.62243MARCINELLE
67.83PEETERS QUENTIN40BELSPTWAVRE1:20:551:20:555:40 10.61244LIMAL
68.695DE DAPPER DAVID46BELCSFMYSTERE1:21:051:21:055:41 10.58245BRUXELLES
69.4817ALLARD LAURENT45BELNAC1:21:231:21:235:42 10.54251NIVELLES
70.6597COLINET BENOÎT47BEL1:21:251:21:255:42 10.54254JAMIOLLE
71.6697GOHY BRUNO45BEL1:21:321:21:325:43 10.52257
72.709LOMBART LUC49BELUACUAC1:21:451:21:455:43 10.50260FERNELMONT
73.1496MAURENNE FRANÇOIS47BEL1:21:461:21:465:44 10.49263GUE D'HOSSUS
74.6406LEFEVRE STÉPHANE43BEL1:21:461:21:465:44 10.49264GOURDINNE
75.6477LUPINETTI SÉBASTIEN41BEL19781:22:241:22:245:46 10.41271ELOUGES
76.407PAQUET OLIVIER43BELJACOJACO1:22:341:22:345:47 10.39276COUVIN
77.6755LANTHIER PHILIPPE47BELCCSTC1:22:381:22:385:47 10.38279FOURMIES
78.1548FICHET LAURENT46BELJACO1:22:591:22:595:49 10.34287BAILEUX
79.1891CHANTEUX BERNARD46BEL1:23:061:23:065:49 10.33290OTTIGNIES
80.6423BRUGGEMAN DAVID44BELSPTWAVRE1:23:231:23:235:50 10.29294WAVRE
81.923CEULEMANS NICOLAS49BELANTILOB1:23:321:23:325:51 10.27297INCOURT
82.6761VAN ASSEL TEDDY41FRA1:23:361:23:365:51 10.26300
83.689DEGROOTE NICOLAAS44BELRCABWNAC1:23:531:23:535:52 10.23301BRUXELLES
84.6452PAGE BENJAMIN40BEL1:24:001:24:005:53 10.22304SAINT RÉMY
85.6720BOURLARD MARC42BEL1:24:121:24:125:54 10.19308
86.6184LAHR PHILIPPE49FRAJTRR1:24:411:24:415:56 10.13314CHIMAY
87.6813COFFIER ETIENNE48FRA1:25:131:25:135:58 10.07320HON HERGIES
88.1893ACCARDO JEAN-FRANCOIS47FRAROCROY SPORTS NATURE1:25:201:25:205:59 10.06324ROCROI
89.6458BINET ALAN46FRAROCROY SPORTS NATURE1:25:201:25:205:59 10.06326ROCROI
90.1014PÉRIN JULIEN40BEL1:25:211:25:215:59 10.05327PROFONDEVILLE
91.6478STASSE MICHEL41FRAACCO1:25:221:25:225:59 10.0532908500
92.1015SCHICKS YVES44BEL1:25:411:25:416:00 10.02335PROFONDEVILLE
93.1049CAPOUILLEZ BENOIT47BELESM1:26:001:26:006:01 9.98341THIMÉON
94.1202PETIT JEAN-SÉBASTIEN46BEL1:26:181:26:186:03 9.94349NEUVILLE
95.6726DAUNE JEAN-FRANÇOIS47BELRUN4FUN THUIN1:26:231:26:236:03 9.93351THUIN
96.514GREVISSE DAVID45BELRONVAU1:26:321:26:326:04 9.92355DION VALMONT
97.6725VIRNINO CLAUDIO47BEL1:26:381:26:386:04 9.91362
98.314DE BOCK PHILIP47BELJAMES1:26:511:26:516:05 9.88368OTTIGNIES
99.6516CAPUTO NATHANAËL46BEL1:27:201:27:206:07 9.82382DOUR
100.322THONON OLIVIER47BELHACRUNNING TEAM CONDROZ1:27:211:27:216:07 9.82383NEUPRÉ
101.6556DEVENS THOMAS42BEL--1:27:421:27:426:08 9.78385PELT
102.1022DE NYS LAURENT49BELM.1:28:321:28:326:12 9.69399LIMELETTE
103.6410MAHY JEAN-FRANÇOIS42BELMAHYJF1:29:211:29:216:15 9.60424QUAROUBLE
104.6831COUNEN OLIVIER45BEL1:29:221:29:226:15 9.60425LOMPRET
105.6750LOMBART CHRISTOPHE49BEL1:29:431:29:436:17 9.57432SOMZEE
106.630DELHOVE FRANÇOIS41BELNAC1:30:201:30:206:20 9.50440BAULERS
107.6422BRASSELET GUILLAUME41FRA1:30:311:30:316:20 9.48444HAUTMONT
108.6754LEMAIRE OLIVIER46BEL1:30:321:30:326:20 9.48445
109.383MAGOTTE OLIVIER47BELJAMES1:30:381:30:386:21 9.47448OTTIGNIES
110.1026LOISEAU GÉRY46BELTABERNAK1:30:561:30:566:22 9.44451SELOIGNES
111.543LAFORGE FREDERIC44BELWACO1:31:071:31:076:23 9.42454HANEFFE
112.199ALAIME SEBASTIEN47BELSPTWAVRE1:31:231:31:236:24 9.39459LIMAL
113.1544LECRENIER SEBASTIEN43BELMMM1:31:311:31:316:24 9.38461MOUSCRON
114.6201LAMANDE MEDDY43FRA1:31:481:31:486:26 9.35464LA GROISE
115.6512ANTOINE EDDY46BELGRANNY1:31:531:31:536:26 9.34465COUVIN
116.1880MICHEL DIMITRI44BELESM1:32:181:32:186:28 9.30470GILLY
117.6459DELIGNE DAVID49BELVERTIGO1:32:571:32:576:30 9.23476MAFFLE
118.232GARCIA FRANÇOIS-DAVID43BEL1:33:141:33:146:32 9.20479LONZÉE
119.1504ESPREUX SÉBASTIEN41BELJTRR1:33:341:33:346:33 9.17487ROCROI
120.6881FASSIAUX JEAN42BELSIDA SOS1:33:491:33:496:34 9.15490IXELLES
121.1074GROSSO PASCAL41BEL1:33:571:33:576:35 9.13494BEAUMONT
122.6507JOLY ARNAUD47FRAFFALUMES COURIR1:34:361:34:366:37 9.07508RENWEZ
123.1565STEVENS OLIVIER41BELFLEURU1:34:451:34:456:38 9.06509LAMBUSART
124.820BIENFAIT QUENTIN41BEL1:35:241:35:246:41 8.99522BRAY
125.978SULEJ ALAIN49BELUAC1:36:331:36:336:46 8.89543CHÂTELET
126.940MAAS STIJN42BEL1:38:061:38:066:52 8.75567LAKEN
127.6483LEFEBVRE ALEXANDRE44BELVERTIG1:38:101:38:106:52 8.74568CAMBRON SAINT VINCENT
128.757LIÉGEOIS NICOLAS41BELJTP BLANCS GILLETS1:39:171:39:176:57 8.64584HÉLÉCINE
129.6832DEHON AXEL44BEL1:39:281:39:286:58 8.63586BRAINE L'ALLEUD
130.144CORBIAUX CHRISTOPHE40BELRCNAMUR1:39:301:39:306:58 8.62587FLAWINNE
131.6172MAESSCHALCK JEANPHILIPPE49BELAMIS JOGGEURS1:39:451:39:456:59 8.60594PÂTURAGES
132.1053DEJONGHE CEDRIC46BELVERTIGVERTIGO1:40:081:40:087:01 8.57598JURBISE
133.6447DUMONT JOHAN40BELRUN'HEURE CLUB1:40:361:40:367:03 8.53603CERFONTAINE
134.95MANSY STEVEN46BEL1:41:171:41:177:05 8.47611FOSSES-LA-VILLE
135.1519NORVEZ MEHDI42FRACAFCAF TRIATHLON1:41:391:41:397:07 8.44618MONDREPUIS
136.1065COGNAUX OLIVIER41FRACAFCA FOURMIES1:42:201:42:207:10 8.39631WIGNEHIES
137.1007HENRY PHILIPPE48BELLA THURE1:43:051:43:057:13 8.32648THUIN
138.1530NICOLAS FRÉDÉRICK45BEL1:43:461:43:467:16 8.27659PRESGAUX
139.379GROSJEAN JEAN-FRANÇOIS48BEL1:44:171:44:177:18 8.23664FOSSES-LA-VILLE
140.6202THIRY GEOFFREY40BEL1:44:571:44:577:21 8.18671MORVILLE
141.1529GENDERA THOMAS45BELJAMES CLUB1:45:181:45:187:22 8.15676WALHAIN
142.6746DELTENRE FREDERIC46BEL1:45:321:45:327:23 8.13678BERSILLIES L'ABBAYE
143.937VANDERLINDEN DENIS41BELNOMAD BEER PROJECT1:36:421:46:207:27 8.07689CHÊNÉE
144.6674BROQUIN JIMMY48FRACHRISTBROQUIN1:46:431:46:437:28 8.04692WATIGNY
145.1553GODELLE JEAN-PHILIPPE47FRARTT1:47:321:47:327:32 7.98702LANDOUZY LA VILLE
146.6165COLINET CEDRIC41FRA1:48:161:48:167:35 7.93709GLAGEON
147.1545PEROT ÉTIENNE47FRA1:48:441:48:447:37 7.89715CHIMAY
148.1098QUIMPER ERIC47FRA19721:48:581:48:587:38 7.87718SIGNY L'ABBAYE
149.1913BÉTRANCOURT PASCAL48FRACH'TISCH'TIS MARATHONIENS1:49:301:49:307:40 7.84725WAVRECHAIN SOUS DENAIN
150.6751HAGNAN STEPHANE46FRA1:52:251:52:257:52 7.63764
151.1886DOUBLET FREDERIC46FRA1:52:341:52:347:53 7.62766HOLNON
152.6513RASQUIN FABIAN42BEL1:53:001:53:007:55 7.59771VILLERS LA TOUR
153.6220CANART PIERRE46BEL2:02:382:02:388:35 7.00841SCHAERBEEK
154.1909DELEAU NICOLAS43FRACH'TISCH'TIS MARATHONIENS2:04:572:04:578:45 6.87852WALLERS
155.1907LANNEAU PATRICE49FRACH'TISCH'TIS MARATHONIENS2:04:572:04:578:45 6.87853HAVELUY
156.1903VANDERSTRAETEN JEAN-CHRISTOPHE47FRACH'TISCH'TIS MARATHONIENS2:04:572:04:578:45 6.87854AUBRY DU HAINAUT
157.6439LEMAIRE THOMAS40FRA2:07:072:07:078:54 6.75864BALAIVES ET BUTZ
158.6711PARÉE TÉRENCE41BEL2:09:462:09:469:05 6.61871ZATAC
159.6762JONQUIN RAPHAEL43BEL2:11:472:11:479:13 6.51884JETTE
160.1914GIBIER JÉRÔME44FRACH'TISCH'TIS MARATHONIENS2:12:332:12:339:17 6.47889HERIN
161.1910DEHOUCK CHRISTOPHE42FRACH'TISCH'TIS MARATHONIENS2:12:352:12:359:17 6.47890WALLERS
162.1905RICHARD MICKAEL42FRACH'TISCH'TIS MARATHONIENS2:12:362:12:369:17 6.47891HERIN
163.4818FLEURET DAMIEN45FRA2:14:102:14:109:23 6.40895CERET
DNF: abandon; DSQ: disqualifié; Vitesse en km/h
Page: [1]